createdAt,value
2019-03-20T00:02:29.012Z,98.90
2019-03-20T00:05:05.488Z,99.30
2019-03-20T00:07:39.142Z,98.80
2019-03-20T00:10:13.090Z,98.90
2019-03-20T00:12:49.406Z,99.40
2019-03-20T00:15:22.925Z,99.40
2019-03-20T00:17:56.415Z,99.10
2019-03-20T00:20:29.523Z,98.70
2019-03-20T00:23:02.638Z,98.10
2019-03-20T00:25:36.953Z,97.80
2019-03-20T00:28:10.351Z,97.70
2019-03-20T00:30:43.616Z,97.60
2019-03-20T00:33:17.015Z,97.50
2019-03-20T00:35:55.248Z,97.40
2019-03-20T00:38:28.980Z,97.50
2019-03-20T00:41:02.026Z,97.60
2019-03-20T00:43:39.869Z,98.20
2019-03-20T00:46:12.663Z,98.70
2019-03-20T00:48:45.683Z,98.40
2019-03-20T00:51:18.620Z,98.80
2019-03-20T00:53:51.760Z,98.80
2019-03-20T00:56:25.051Z,98.30
2019-03-20T00:58:58.228Z,98.70
2019-03-20T01:01:32.026Z,98.80
2019-03-20T01:04:05.418Z,98.80
2019-03-20T01:06:38.514Z,98.30
2019-03-20T01:09:11.534Z,99.10
2019-03-20T01:11:44.405Z,98.60
2019-03-20T01:14:17.157Z,98.30
2019-03-20T01:16:50.052Z,98.10
2019-03-20T01:19:22.919Z,98.30
2019-03-20T01:21:56.074Z,98.20
2019-03-20T01:24:28.776Z,98.10
2019-03-20T01:27:02.339Z,98.10
2019-03-20T01:29:35.632Z,98.30
2019-03-20T01:32:28.383Z,98.80
2019-03-20T01:35:01.247Z,98.70
2019-03-20T01:37:34.454Z,98.90
2019-03-20T01:40:08.671Z,98.70
2019-03-20T01:42:41.646Z,99.10
2019-03-20T01:45:14.647Z,98.70
2019-03-20T01:47:47.921Z,97.90
2019-03-20T01:50:24.031Z,99.10
2019-03-20T01:52:57.432Z,97.60
2019-03-20T01:55:31.487Z,99.00
2019-03-20T01:58:11.706Z,97.20
2019-03-20T02:00:44.705Z,97.00
2019-03-20T02:03:18.581Z,97.10
2019-03-20T02:05:52.045Z,98.70
2019-03-20T02:08:28.219Z,98.20
2019-03-20T02:11:01.338Z,97.80
2019-03-20T02:13:34.645Z,97.90
2019-03-20T02:16:08.067Z,97.20
2019-03-20T02:18:40.813Z,97.60
2019-03-20T02:21:14.168Z,97.20
2019-03-20T02:23:46.928Z,97.40
2019-03-20T02:26:20.578Z,98.10
2019-03-20T02:28:53.455Z,97.30
2019-03-20T02:31:26.611Z,97.20
2019-03-20T02:34:00.454Z,95.90
2019-03-20T02:36:34.300Z,95.80
2019-03-20T02:39:08.650Z,95.80
2019-03-20T02:41:42.178Z,95.60
2019-03-20T02:44:15.712Z,96.10
2019-03-20T02:46:48.815Z,96.00
2019-03-20T02:49:21.801Z,95.70
2019-03-20T02:51:54.836Z,94.90
2019-03-20T02:54:27.783Z,95.50
2019-03-20T02:57:01.000Z,95.30
2019-03-20T02:59:34.490Z,95.20
2019-03-20T03:02:09.031Z,95.40
2019-03-20T03:04:42.124Z,95.10
2019-03-20T03:07:15.426Z,94.80
2019-03-20T03:09:48.332Z,94.60
2019-03-20T03:12:21.763Z,94.50
2019-03-20T03:14:54.609Z,94.60
2019-03-20T03:17:28.016Z,94.80
2019-03-20T03:20:00.795Z,95.20
2019-03-20T03:22:34.912Z,95.40
2019-03-20T03:25:09.631Z,95.40
2019-03-20T03:27:43.047Z,95.40
2019-03-20T03:30:17.843Z,95.40
2019-03-20T03:32:53.968Z,95.50
2019-03-20T03:35:31.659Z,95.10
2019-03-20T03:38:05.040Z,94.70
2019-03-20T03:40:38.283Z,94.30
2019-03-20T03:43:11.138Z,94.30
2019-03-20T03:45:47.408Z,94.30
2019-03-20T03:48:20.419Z,94.30
2019-03-20T03:50:54.480Z,94.30
2019-03-20T03:53:27.612Z,93.70
2019-03-20T03:56:02.047Z,93.40
2019-03-20T03:58:35.517Z,93.60
2019-03-20T04:01:08.545Z,93.20
2019-03-20T04:03:41.518Z,93.50
2019-03-20T04:06:14.441Z,92.60
2019-03-20T04:08:50.219Z,92.50
2019-03-20T04:11:23.177Z,91.80
2019-03-20T04:13:56.517Z,91.60
2019-03-20T04:16:29.773Z,91.70
2019-03-20T04:19:04.120Z,91.60
2019-03-20T04:21:37.162Z,91.80
2019-03-20T04:24:10.385Z,91.90
2019-03-20T04:26:43.591Z,91.80
2019-03-20T04:29:16.545Z,91.30
2019-03-20T04:31:49.582Z,91.40
2019-03-20T04:34:23.399Z,91.60
2019-03-20T04:36:56.442Z,91.80
2019-03-20T04:39:30.204Z,92.10
2019-03-20T04:42:03.124Z,92.40
2019-03-20T04:44:36.176Z,92.40
2019-03-20T04:47:09.619Z,92.80
2019-03-20T04:49:42.360Z,93.20
2019-03-20T04:52:15.368Z,93.40
2019-03-20T04:54:48.332Z,93.70
2019-03-20T04:57:21.543Z,93.80
2019-03-20T04:59:54.721Z,93.10
2019-03-20T05:02:27.816Z,92.80
2019-03-20T05:05:01.703Z,93.40
2019-03-20T05:07:34.459Z,94.70
2019-03-20T05:10:09.412Z,94.80
2019-03-20T05:12:42.525Z,94.90
2019-03-20T05:15:15.763Z,95.00
2019-03-20T05:17:48.642Z,95.10
2019-03-20T05:20:25.342Z,93.70
2019-03-20T05:22:59.070Z,95.20
2019-03-20T05:25:32.343Z,94.90
2019-03-20T05:28:05.223Z,94.70
2019-03-20T05:30:37.974Z,94.50
2019-03-20T05:33:11.266Z,94.90
2019-03-20T05:35:44.828Z,93.40
2019-03-20T05:38:18.222Z,93.20
2019-03-20T05:40:52.524Z,92.60
2019-03-20T05:43:25.958Z,92.40
2019-03-20T05:46:00.451Z,92.10
2019-03-20T05:48:33.203Z,91.80
2019-03-20T05:51:09.493Z,91.90
2019-03-20T05:53:55.980Z,93.00
2019-03-20T05:56:28.893Z,93.40
2019-03-20T05:59:03.078Z,93.10
2019-03-20T06:01:35.994Z,93.20
2019-03-20T06:04:09.886Z,92.50
2019-03-20T06:07:02.791Z,92.60
2019-03-20T06:09:35.667Z,92.90
2019-03-20T06:12:09.092Z,92.80
2019-03-20T06:14:41.989Z,92.00
2019-03-20T06:17:15.054Z,91.90
2019-03-20T06:19:47.690Z,92.20
2019-03-20T06:22:22.504Z,92.30
2019-03-20T06:24:54.961Z,93.40
2019-03-20T06:27:27.735Z,93.20
2019-03-20T06:30:00.466Z,92.40
2019-03-20T06:32:38.991Z,93.30
2019-03-20T06:35:12.395Z,93.20
2019-03-20T06:37:45.440Z,92.50
2019-03-20T06:40:18.768Z,92.70
2019-03-20T06:42:52.129Z,91.80
2019-03-20T06:45:25.697Z,91.90
2019-03-20T06:47:59.651Z,91.20
2019-03-20T06:50:32.608Z,91.60
2019-03-20T06:53:05.632Z,91.60
2019-03-20T06:55:38.562Z,91.60
2019-03-20T06:58:11.734Z,92.60
2019-03-20T07:01:09.352Z,93.00
2019-03-20T07:03:47.814Z,92.30
2019-03-20T07:06:45.646Z,93.30
2019-03-20T07:09:30.511Z,93.50
2019-03-20T07:12:04.786Z,93.80
2019-03-20T07:14:37.777Z,94.00
2019-03-20T07:17:11.368Z,93.10
2019-03-20T07:19:45.074Z,92.80
2019-03-20T07:22:18.781Z,93.10
2019-03-20T07:24:52.097Z,92.70
2019-03-20T07:27:24.900Z,93.00
2019-03-20T07:29:57.925Z,93.60
2019-03-20T07:32:32.267Z,93.70
2019-03-20T07:35:05.262Z,92.90
2019-03-20T07:37:38.023Z,93.90
2019-03-20T07:40:11.536Z,92.90
2019-03-20T07:42:44.490Z,93.30
2019-03-20T07:45:17.229Z,93.60
2019-03-20T07:47:50.446Z,93.20
2019-03-20T07:50:23.195Z,92.80
2019-03-20T07:52:56.204Z,92.80
2019-03-20T07:55:29.793Z,92.70
2019-03-20T07:58:03.129Z,92.70
2019-03-20T08:00:36.056Z,92.50
2019-03-20T08:03:09.703Z,92.00
2019-03-20T08:05:42.452Z,92.80
2019-03-20T08:08:15.536Z,92.30
2019-03-20T08:10:48.717Z,93.00
2019-03-20T08:13:22.029Z,92.80
2019-03-20T08:15:55.333Z,93.10
2019-03-20T08:18:30.203Z,92.80
2019-03-20T08:21:08.791Z,93.40
2019-03-20T08:23:46.613Z,93.70
2019-03-20T08:26:25.481Z,93.20
2019-03-20T08:29:01.008Z,93.20
2019-03-20T08:31:35.899Z,93.60
2019-03-20T08:34:09.015Z,93.60
2019-03-20T08:36:42.887Z,93.90
2019-03-20T08:39:16.151Z,93.70
2019-03-20T08:44:51.129Z,93.10
2019-03-20T08:47:26.727Z,93.30
2019-03-20T08:50:01.571Z,93.10
2019-03-20T08:52:35.816Z,93.60
2019-03-20T08:55:10.903Z,92.70
2019-03-20T08:57:43.828Z,92.70
2019-03-20T09:00:19.557Z,93.00
2019-03-20T09:02:52.495Z,93.80
2019-03-20T09:05:25.321Z,93.50
2019-03-20T09:07:58.212Z,93.40
2019-03-20T09:10:31.453Z,93.20
2019-03-20T09:13:05.175Z,92.90
2019-03-20T09:15:43.246Z,92.90
2019-03-20T09:18:16.074Z,92.90
2019-03-20T09:20:49.947Z,93.50
2019-03-20T09:23:22.932Z,93.00
2019-03-20T09:25:56.339Z,93.30
2019-03-20T09:28:29.291Z,93.00
2019-03-20T09:31:02.281Z,93.40
2019-03-20T09:33:35.182Z,93.20
2019-03-20T09:36:08.252Z,93.70
2019-03-20T09:38:43.689Z,93.80
2019-03-20T09:41:16.012Z,93.20
2019-03-20T09:43:49.094Z,93.80
2019-03-20T09:46:22.803Z,93.20
2019-03-20T09:48:55.563Z,93.30
2019-03-20T09:51:29.132Z,93.30
2019-03-20T09:54:01.953Z,93.40
2019-03-20T09:56:35.574Z,93.50
2019-03-20T09:59:08.539Z,93.50
2019-03-20T10:01:41.809Z,93.50
2019-03-20T10:04:14.821Z,93.50
2019-03-20T10:06:48.233Z,93.80
2019-03-20T10:09:20.934Z,94.40
2019-03-20T10:11:54.527Z,94.00
2019-03-20T10:14:27.150Z,93.70
2019-03-20T10:17:00.294Z,93.70
2019-03-20T10:19:33.051Z,93.90
2019-03-20T10:22:09.259Z,93.90
2019-03-20T10:24:43.874Z,94.00
2019-03-20T10:27:19.298Z,94.00
2019-03-20T10:29:52.567Z,94.10
2019-03-20T10:32:26.019Z,94.30
2019-03-20T10:34:58.700Z,95.60
2019-03-20T10:37:31.693Z,94.20
2019-03-20T10:40:04.424Z,95.80
2019-03-20T10:42:37.436Z,96.00
2019-03-20T10:45:12.289Z,95.50
2019-03-20T10:47:45.716Z,94.60
2019-03-20T10:50:23.723Z,94.70
2019-03-20T10:52:56.997Z,94.90
2019-03-20T10:55:29.804Z,96.70
2019-03-20T10:58:02.820Z,95.00
2019-03-20T11:00:35.561Z,95.50
2019-03-20T11:03:09.099Z,95.20
2019-03-20T11:05:41.836Z,95.00
2019-03-20T11:08:15.476Z,96.20
2019-03-20T11:10:48.286Z,95.30
2019-03-20T11:13:21.212Z,97.30
2019-03-20T11:15:54.919Z,95.90
2019-03-20T11:18:29.416Z,95.50
2019-03-20T11:21:02.406Z,95.60
2019-03-20T11:23:55.118Z,95.60
2019-03-20T11:26:27.908Z,96.40
2019-03-20T11:29:00.659Z,96.00
2019-03-20T11:31:33.663Z,96.00
2019-03-20T11:34:06.801Z,96.00
2019-03-20T11:36:39.914Z,96.30
2019-03-20T11:39:12.733Z,96.00
2019-03-20T11:41:45.388Z,96.20
2019-03-20T11:44:18.548Z,96.20
2019-03-20T11:46:51.602Z,96.40
2019-03-20T11:49:24.308Z,96.40
2019-03-20T11:51:57.347Z,97.00
2019-03-20T11:54:30.208Z,96.50
2019-03-20T11:57:03.830Z,96.90
2019-03-20T11:59:36.881Z,96.60
2019-03-20T12:02:09.800Z,96.60
2019-03-20T12:04:43.372Z,97.00
2019-03-20T12:07:18.305Z,97.20
2019-03-20T12:09:52.028Z,96.80
2019-03-20T12:12:25.226Z,97.30
2019-03-20T12:14:58.034Z,96.80
2019-03-20T12:17:30.690Z,96.90
2019-03-20T12:20:03.703Z,97.30
2019-03-20T12:22:36.544Z,96.90
2019-03-20T12:25:18.034Z,97.00
2019-03-20T12:27:51.527Z,96.80
2019-03-20T12:30:38.303Z,96.90
2019-03-20T12:33:12.148Z,97.00
2019-03-20T12:35:46.928Z,97.40
2019-03-20T12:38:19.651Z,96.90
2019-03-20T12:40:53.070Z,97.10
2019-03-20T12:43:25.784Z,97.10
2019-03-20T12:45:59.253Z,97.50
2019-03-20T12:48:32.331Z,97.60
2019-03-20T12:51:05.508Z,97.30
2019-03-20T12:53:38.533Z,97.70
2019-03-20T12:56:12.815Z,97.60
2019-03-20T12:58:45.672Z,97.40
2019-03-20T13:01:18.764Z,96.90
2019-03-20T13:03:52.200Z,97.30
2019-03-20T13:06:30.391Z,97.20
2019-03-20T13:09:03.826Z,97.30
2019-03-20T13:11:37.247Z,97.60
2019-03-20T13:14:10.468Z,97.50
2019-03-20T13:16:43.623Z,97.00
2019-03-20T13:19:16.599Z,97.30
2019-03-20T13:21:49.820Z,97.00
2019-03-20T13:24:23.142Z,97.20
2019-03-20T13:26:56.300Z,97.00
2019-03-20T13:29:36.039Z,97.30
2019-03-20T13:32:09.070Z,97.60
2019-03-20T13:34:42.090Z,97.40
2019-03-20T13:37:15.447Z,97.30
2019-03-20T13:39:48.546Z,97.70
2019-03-20T13:42:21.512Z,97.20
2019-03-20T13:44:54.754Z,97.30
2019-03-20T13:47:31.711Z,97.50
2019-03-20T13:50:04.616Z,97.70
2019-03-20T13:52:37.454Z,98.10
2019-03-20T13:55:15.630Z,98.10
2019-03-20T13:57:49.264Z,97.90
2019-03-20T14:00:23.794Z,98.60
2019-03-20T14:02:56.685Z,98.10
2019-03-20T14:05:33.207Z,98.30
2019-03-20T14:08:06.265Z,98.20
2019-03-20T14:10:49.659Z,98.80
2019-03-20T14:13:13.250Z,98.20
2019-03-20T14:15:46.393Z,98.00
2019-03-20T14:18:19.460Z,98.00
2019-03-20T14:20:52.322Z,98.10
2019-03-20T14:23:25.327Z,97.80
2019-03-20T14:25:58.537Z,97.80
2019-03-20T14:28:31.695Z,97.80
2019-03-20T14:31:04.916Z,97.70
2019-03-20T14:33:38.129Z,97.70
2019-03-20T14:36:11.452Z,98.50
2019-03-20T14:38:44.785Z,98.00
2019-03-20T14:41:21.479Z,97.90
2019-03-20T14:43:53.069Z,98.10
2019-03-20T14:46:26.127Z,98.10
2019-03-20T14:48:59.075Z,98.50
2019-03-20T14:51:31.842Z,98.20
2019-03-20T14:54:04.810Z,98.10
2019-03-20T14:56:38.033Z,98.10
2019-03-20T14:59:10.783Z,98.30
2019-03-20T15:01:43.739Z,98.10
2019-03-20T15:04:16.767Z,98.20
2019-03-20T15:06:49.872Z,98.20
2019-03-20T15:09:22.867Z,98.50
2019-03-20T15:11:55.938Z,98.00
2019-03-20T15:14:28.780Z,98.40
2019-03-20T15:17:02.781Z,98.20
2019-03-20T15:19:35.424Z,99.00
2019-03-20T15:22:08.777Z,98.20
2019-03-20T15:24:41.894Z,98.30
2019-03-20T15:27:14.762Z,98.70
2019-03-20T15:29:48.527Z,98.60
2019-03-20T15:32:22.406Z,98.30
2019-03-20T15:34:55.848Z,98.20
2019-03-20T15:37:28.970Z,98.40
2019-03-20T15:40:01.931Z,99.20
2019-03-20T15:42:34.855Z,98.60
2019-03-20T15:45:10.280Z,98.50
2019-03-20T15:47:43.931Z,98.50
2019-03-20T15:50:24.675Z,98.30
2019-03-20T15:53:03.990Z,98.40
2019-03-20T15:55:39.548Z,98.50
2019-03-20T15:58:14.175Z,98.60
2019-03-20T16:00:47.772Z,98.60
2019-03-20T16:03:41.029Z,98.60
2019-03-20T16:06:15.957Z,98.50
2019-03-20T16:08:49.027Z,98.70
2019-03-20T16:11:22.416Z,98.70
2019-03-20T16:13:56.568Z,98.50
2019-03-20T16:16:30.283Z,98.90
2019-03-20T16:19:03.648Z,99.00
2019-03-20T16:21:36.643Z,99.40
2019-03-20T16:24:12.618Z,98.70
2019-03-20T16:26:45.792Z,99.30
2019-03-20T16:29:19.713Z,98.80
2019-03-20T16:31:55.418Z,98.80
2019-03-20T16:34:28.214Z,98.90
2019-03-20T16:37:04.107Z,98.90
2019-03-20T16:39:40.350Z,99.10
2019-03-20T16:42:16.203Z,98.90
2019-03-20T16:44:49.786Z,98.80
2019-03-20T16:47:23.407Z,99.00
2019-03-20T16:49:57.822Z,98.80
2019-03-20T16:52:30.821Z,98.90
2019-03-20T16:55:04.936Z,98.80
2019-03-20T16:57:38.258Z,98.90
2019-03-20T17:00:20.556Z,98.80
2019-03-20T17:02:53.426Z,98.70
2019-03-20T17:05:26.683Z,99.00
2019-03-20T17:08:00.644Z,99.00
2019-03-20T17:10:46.720Z,99.00
2019-03-20T17:13:21.890Z,99.10
2019-03-20T17:15:55.397Z,99.00
2019-03-20T17:18:28.343Z,99.90
2019-03-20T17:21:01.457Z,99.10
2019-03-20T17:23:34.502Z,99.00
2019-03-20T17:26:07.726Z,99.10
2019-03-20T17:28:41.418Z,99.80
2019-03-20T17:31:14.597Z,99.40
2019-03-20T17:33:47.667Z,99.40
2019-03-20T17:36:20.665Z,99.80
2019-03-20T17:38:54.830Z,99.40
2019-03-20T17:41:36.443Z,99.90
2019-03-20T17:44:02.954Z,99.80
2019-03-20T17:46:35.726Z,99.90
2019-03-20T17:49:08.991Z,99.40
2019-03-20T17:51:41.701Z,99.70
2019-03-20T17:54:14.912Z,99.80
2019-03-20T17:56:48.355Z,99.60
2019-03-20T17:59:21.433Z,99.60
2019-03-20T18:01:54.641Z,99.50
2019-03-20T18:04:28.226Z,99.50
2019-03-20T18:07:01.214Z,99.90
2019-03-20T18:09:34.258Z,99.40
2019-03-20T18:12:07.192Z,99.90
2019-03-20T18:14:40.575Z,99.50
2019-03-20T18:17:13.771Z,99.50
2019-03-20T18:19:46.841Z,99.20
2019-03-20T18:22:20.746Z,99.30
2019-03-20T18:24:54.423Z,99.30
2019-03-20T18:27:27.917Z,99.90
2019-03-20T18:30:01.422Z,99.20
2019-03-20T18:32:34.459Z,99.20
2019-03-20T18:35:09.294Z,99.40
2019-03-20T18:37:42.143Z,99.50
2019-03-20T18:40:16.785Z,99.40
2019-03-20T18:42:50.140Z,99.70
2019-03-20T18:45:23.941Z,99.30
2019-03-20T18:47:56.769Z,99.40
2019-03-20T18:50:29.775Z,99.50
2019-03-20T18:53:03.054Z,99.50
2019-03-20T18:55:36.102Z,99.50
2019-03-20T18:58:10.359Z,99.90
2019-03-20T19:00:43.686Z,99.70
2019-03-20T19:03:37.009Z,99.50
2019-03-20T19:06:14.295Z,99.50
2019-03-20T19:08:46.545Z,99.60
2019-03-20T19:11:19.782Z,99.50
2019-03-20T19:13:53.151Z,99.60
2019-03-20T19:16:26.129Z,99.50
2019-03-20T19:18:59.362Z,99.40
2019-03-20T19:21:32.685Z,99.60
2019-03-20T19:24:06.153Z,99.50
2019-03-20T19:26:39.028Z,99.50
2019-03-20T19:29:12.733Z,99.50
2019-03-20T19:31:46.227Z,99.40
2019-03-20T19:34:19.647Z,99.60
2019-03-20T19:36:53.131Z,99.70
2019-03-20T19:39:26.879Z,99.30
2019-03-20T19:42:00.432Z,99.40
2019-03-20T19:44:33.412Z,99.30
2019-03-20T19:47:06.786Z,99.20
2019-03-20T19:49:39.877Z,99.30
2019-03-20T19:52:13.267Z,99.40
2019-03-20T19:54:46.498Z,99.30
2019-03-20T19:57:20.446Z,99.30
2019-03-20T19:59:53.681Z,99.40
2019-03-20T20:02:27.108Z,99.30
2019-03-20T20:05:00.189Z,99.20
2019-03-20T20:07:33.385Z,99.80
2019-03-20T20:10:07.758Z,99.30
2019-03-20T20:12:41.317Z,99.80
2019-03-20T20:15:23.165Z,99.90
2019-03-20T20:17:56.467Z,99.50
2019-03-20T20:20:31.335Z,99.90
2019-03-20T20:23:04.508Z,99.70
2019-03-20T20:25:37.766Z,99.50
2019-03-20T20:28:11.584Z,99.60
2019-03-20T20:30:44.753Z,99.60
2019-03-20T20:33:18.036Z,99.70
2019-03-20T20:35:51.025Z,99.60
2019-03-20T20:38:23.922Z,99.50
2019-03-20T20:40:58.005Z,99.70
2019-03-20T20:43:31.813Z,99.90
2019-03-20T20:46:06.446Z,99.90
2019-03-20T20:48:39.965Z,99.90
2019-03-20T20:51:13.852Z,99.40
2019-03-20T20:53:47.097Z,99.20
2019-03-20T20:56:22.603Z,99.30
2019-03-20T20:58:56.307Z,99.90
2019-03-20T21:01:30.223Z,99.40
2019-03-20T21:04:03.499Z,99.10
2019-03-20T21:06:36.012Z,99.20
2019-03-20T21:09:10.038Z,99.40
2019-03-20T21:11:43.456Z,99.40
2019-03-20T21:14:16.784Z,99.50
2019-03-20T21:16:50.065Z,99.40
2019-03-20T21:19:36.510Z,99.50
2019-03-20T21:22:21.758Z,99.50
2019-03-20T21:24:54.516Z,99.60
2019-03-20T21:27:52.620Z,99.60
2019-03-20T21:30:52.563Z,99.30
2019-03-20T21:33:36.890Z,99.40
2019-03-20T21:36:35.347Z,99.30
2019-03-20T21:39:09.372Z,99.30
2019-03-20T21:41:53.666Z,99.60
2019-03-20T21:45:02.048Z,99.10
2019-03-20T21:47:37.315Z,99.50
2019-03-20T21:50:24.425Z,99.30
2019-03-20T21:52:58.743Z,99.60
2019-03-20T21:55:50.877Z,99.40
2019-03-20T21:58:23.559Z,99.90
2019-03-20T22:01:24.191Z,99.40
2019-03-20T22:03:57.475Z,99.50
2019-03-20T22:07:07.161Z,99.50
2019-03-20T22:09:54.859Z,99.40
2019-03-20T22:12:54.349Z,99.40
2019-03-20T22:15:35.763Z,99.50
2019-03-20T22:18:33.336Z,99.90
2019-03-20T22:21:24.031Z,99.60
2019-03-20T22:24:16.463Z,99.60
2019-03-20T22:27:24.143Z,99.50
2019-03-20T22:29:57.205Z,99.40
2019-03-20T22:32:35.945Z,99.90
2019-03-20T22:35:30.884Z,99.50
2019-03-20T22:38:05.350Z,99.50
2019-03-20T22:41:15.841Z,99.90
2019-03-20T22:43:51.429Z,99.90
2019-03-20T22:46:42.246Z,99.90
2019-03-20T22:49:27.628Z,99.50
2019-03-20T22:52:09.097Z,99.40
2019-03-20T22:54:56.225Z,99.60
2019-03-20T22:58:03.725Z,99.60
2019-03-20T23:00:37.123Z,99.50
2019-03-20T23:03:35.184Z,99.70
2019-03-20T23:06:09.412Z,99.90
2019-03-20T23:08:42.721Z,99.90
2019-03-20T23:11:15.874Z,99.70
2019-03-20T23:13:49.258Z,99.90
2019-03-20T23:16:23.247Z,99.90
2019-03-20T23:18:57.290Z,99.90
2019-03-20T23:21:30.601Z,99.90
2019-03-20T23:24:03.375Z,99.80
2019-03-20T23:26:36.550Z,99.80
2019-03-20T23:29:09.439Z,99.60
2019-03-20T23:31:42.979Z,99.90
2019-03-20T23:34:16.741Z,99.60
2019-03-20T23:36:52.236Z,99.60
2019-03-20T23:39:26.093Z,99.80
2019-03-20T23:41:59.741Z,99.80
2019-03-20T23:44:33.056Z,99.60
2019-03-20T23:47:07.513Z,99.80
2019-03-20T23:49:40.656Z,99.70
2019-03-20T23:52:13.807Z,99.70
2019-03-20T23:54:47.731Z,99.90
2019-03-20T23:57:20.884Z,99.80
2019-03-20T23:59:54.052Z,99.80
